ftmx61

TAF MMBT 090448Z 0906/1006 00000KT P6SM SCT250 
         FM091800 18010KT P6SM SCT025 SCT080 BKN250 
         FM100500 00000KT P6SM SCT030=
TAF MMCB 090448Z 0906/1006 00000KT P6SM SKC 
         FM091800 20006KT P6SM SCT250 
         FM100500 00000KT P6SM SKC=
TAF MMOX 090448Z 0906/1006 13005KT P6SM SKC 
         FM091800 34008KT P6SM SCT030 SCT080 BKN250 
         FM100500 32005KT P6SM SKC=
TAF MMPB 090448Z 0906/1006 20005KT P6SM SKC 
         FM091800 04008KT P6SM SCT250 
         FM100500 33005KT P6SM SKC=
TAF MMPS 090448Z 0906/1006 05005KT P6SM SKC 
         FM091800 23008KT P6SM SCT080 BKN250 
         FM100500 00000KT P6SM SKC=
TAF MMZH 090448Z 0906/1006 00000KT 6SM HZ SCT090 
         FM091800 24008KT 6SM HZ SCT020 SCT080 BKN250 
         FM100500 00000KT 6SM HZ SCT080=